Time;durP1;ratioP1;P1;durP2;ratioP2;P2;SDS_P1;SDS_P2;PMS_P1;PMS_P2;Temp;Humidity;BMP_temperature;BMP_pressure;BME280_temperature;BME280_humidity;BME280_pressure;Samples;Min_cycle;Max_cycle;Signal;HPM_P1;HPM_P2
2022/12/21 00:01:33;;;;;;;38.28;17.00;;;;;;;3.65;59.38;100515.09;4380188;32;20101;-83
2022/12/21 00:04:00;;;;;;;38.85;16.90;;;;;;;3.63;59.38;100507.38;4404356;32;20116;-83
2022/12/21 00:06:27;;;;;;;37.13;16.45;;;;;;;3.63;59.38;100517.69;4391967;32;20078;-83
2022/12/21 00:08:54;;;;;;;39.80;16.80;;;;;;;3.78;59.39;100514.34;4410934;32;20110;-83
2022/12/21 00:11:21;;;;;;;40.47;16.62;;;;;;;3.62;59.38;100510.81;4407790;32;20139;-84
2022/12/21 00:13:47;;;;;;;33.65;15.75;;;;;;;3.61;59.38;100513.38;4410270;32;20556;-83
2022/12/21 00:16:14;;;;;;;37.28;16.05;;;;;;;3.56;59.38;100512.47;4410062;32;20116;-83
2022/12/21 00:18:40;;;;;;;38.22;16.20;;;;;;;3.60;59.37;100512.50;4415741;32;20106;-83
2022/12/21 00:21:10;;;;;;;39.15;16.27;;;;;;;3.62;59.38;100515.94;4402084;32;20136;-84
2022/12/21 00:23:35;;;;;;;44.90;16.15;;;;;;;3.67;59.38;100508.25;4416161;32;20093;-83
2022/12/21 00:26:02;;;;;;;34.03;15.27;;;;;;;3.57;59.38;100509.03;4389701;32;20147;-84
2022/12/21 00:28:27;;;;;;;39.38;15.55;;;;;;;3.67;59.37;100514.28;4404010;32;20163;-83
2022/12/21 00:30:53;;;;;;;39.15;17.58;;;;;;;3.55;59.38;100509.03;4429448;32;20170;-83
2022/12/21 00:33:18;;;;;;;43.47;17.15;;;;;;;3.56;59.37;100505.63;4406644;32;20116;-84
2022/12/21 00:35:50;;;;;;;39.38;15.55;;;;;;;3.59;59.37;100508.22;4397953;32;22362;-83
2022/12/21 00:38:16;;;;;;;38.28;16.50;;;;;;;3.49;59.37;100498.66;4399409;32;20136;-83
2022/12/21 00:40:42;;;;;;;39.30;16.25;;;;;;;3.52;59.37;100497.81;4402184;32;20101;-83
2022/12/21 00:43:07;;;;;;;34.10;15.63;;;;;;;3.44;59.37;100504.63;4405857;32;20390;-84
2022/12/21 00:45:33;;;;;;;39.05;15.52;;;;;;;3.53;59.38;100500.41;4419794;32;20150;-83
2022/12/21 00:47:58;;;;;;;42.97;16.10;;;;;;;3.60;59.37;100498.78;4396795;32;20486;-82
2022/12/21 00:50:23;;;;;;;42.42;16.70;;;;;;;3.49;59.37;100501.25;4421971;32;20166;-82
2022/12/21 00:52:49;;;;;;;36.60;16.25;;;;;;;3.48;59.37;100491.78;4396771;32;20119;-83
2022/12/21 00:55:14;;;;;;;41.85;16.25;;;;;;;3.52;59.37;100497.81;4410722;32;20133;-82
2022/12/21 00:57:40;;;;;;;33.38;15.18;;;;;;;3.52;59.37;100501.25;4411648;32;20152;-82
2022/12/21 01:00:06;;;;;;;38.53;16.35;;;;;;;3.52;59.37;100498.69;4400602;32;20131;-83
2022/12/21 01:02:31;;;;;;;35.40;15.65;;;;;;;3.51;59.37;100501.25;4397068;32;20156;-83
2022/12/21 01:04:57;;;;;;;40.00;15.40;;;;;;;3.49;59.37;100500.38;4409459;32;21694;-83
2022/12/21 01:07:22;;;;;;;37.75;15.88;;;;;;;3.38;59.36;100501.16;4397167;32;20491;-83
2022/12/21 01:09:47;;;;;;;39.15;15.85;;;;;;;3.35;59.37;100500.28;4410036;32;20450;-83
2022/12/21 01:12:13;;;;;;;39.25;15.45;;;;;;;3.43;59.36;100500.34;4415350;32;20115;-84
2022/12/21 01:14:38;;;;;;;39.03;16.37;;;;;;;3.43;59.37;100498.63;4402140;32;20093;-83
2022/12/21 01:17:03;;;;;;;35.28;16.17;;;;;;;3.57;59.38;100494.47;4404170;32;20136;-84
2022/12/21 01:19:29;;;;;;;37.42;15.57;;;;;;;3.48;59.37;100484.06;4395520;32;20120;-84
2022/12/21 01:21:54;;;;;;;38.90;16.23;;;;;;;3.52;59.37;100483.25;4415711;32;20182;-84
2022/12/21 01:24:20;;;;;;;38.53;16.02;;;;;;;3.60;59.37;100485.91;4401557;32;20089;-84
2022/12/21 01:26:45;;;;;;;38.38;15.35;;;;;;;3.70;59.38;100485.09;4399782;32;21474;-83
2022/12/21 01:29:14;;;;;;;35.83;15.52;;;;;;;3.50;59.37;100472.06;4406793;32;23500;-84
2022/12/21 01:31:39;;;;;;;38.83;15.85;;;;;;;3.53;59.38;100460.94;4409844;32;20112;-83
2022/12/21 01:34:05;;;;;;;36.60;14.98;;;;;;;3.52;59.37;100466.94;4397918;32;20094;-84
2022/12/21 01:36:30;;;;;;;34.95;15.00;;;;;;;3.48;59.37;100473.78;4406641;32;20089;-84
2022/12/21 01:38:56;;;;;;;33.10;15.02;;;;;;;3.52;59.37;100456.63;4422591;32;20442;-83
2022/12/21 01:41:25;;;;;;;32.97;14.38;;;;;;;3.38;59.36;100457.41;4409689;32;20937;-83
2022/12/21 01:43:55;;;;;;;32.83;15.00;;;;;;;3.55;59.37;100448.94;4420036;32;20136;-84
2022/12/21 01:46:30;;;;;;;37.33;16.37;;;;;;;3.53;59.38;100448.06;4397229;32;20118;-84
2022/12/21 01:49:02;;;;;;;35.50;14.60;;;;;;;3.62;59.38;100449.03;4399536;32;20126;-84
2022/12/21 01:51:28;;;;;;;38.50;15.70;;;;;;;3.41;59.37;100451.41;4403969;32;20094;-84
2022/12/21 01:54:00;;;;;;;37.50;14.73;;;;;;;3.48;59.37;100448.03;4409347;32;20354;-84
2022/12/21 01:56:31;;;;;;;37.88;15.82;;;;;;;3.39;59.37;100442.84;4397035;32;20140;-84
2022/12/21 01:58:57;;;;;;;41.28;16.52;;;;;;;3.57;59.38;100444.69;4420003;32;20102;-84
2022/12/21 02:01:22;;;;;;;38.60;15.07;;;;;;;3.49;59.37;100439.47;4405408;32;20442;-84
2022/12/21 02:03:49;;;;;;;32.95;15.32;;;;;;;3.67;59.38;100441.31;4398089;32;20109;-83
2022/12/21 02:06:29;;;;;;;36.90;14.40;;;;;;;3.51;59.37;100431.75;4404579;32;20510;-83
2022/12/21 02:08:54;;;;;;;33.47;14.23;;;;;;;3.51;59.37;100424.03;4404275;32;20476;-83
2022/12/21 02:11:20;;;;;;;34.72;14.65;;;;;;;3.63;59.38;100430.16;4401672;32;88291;-83
2022/12/21 02:13:45;;;;;;;38.60;15.30;;;;;;;3.59;59.38;100430.13;4406959;32;20086;-84
2022/12/21 02:16:14;;;;;;;38.50;15.23;;;;;;;3.61;59.38;100424.13;4397135;32;20117;-84
2022/12/21 02:18:48;;;;;;;33.97;14.52;;;;;;;3.49;59.37;100424.03;4428869;32;20097;-85
2022/12/21 02:21:52;;;;;;;33.97;15.23;;;;;;;3.59;59.38;100418.09;4413357;32;20085;-83
2022/12/21 02:24:49;;;;;;;31.40;13.98;;;;;;;3.70;59.39;100415.59;4418235;32;20089;-84
2022/12/21 02:27:36;;;;;;;30.42;14.25;;;;;;;3.35;59.37;100407.63;4416489;32;20132;-83
2022/12/21 02:30:01;;;;;;;38.45;14.23;;;;;;;3.30;59.36;100409.28;4423076;32;20143;-83
2022/12/21 02:32:41;;;;;;;35.97;14.18;;;;;;;3.62;59.38;100409.53;4410376;32;20118;-83
2022/12/21 02:35:29;;;;;;;28.23;13.10;;;;;;;3.60;59.37;100403.53;4411904;32;20085;-83
2022/12/21 02:38:21;;;;;;;34.78;14.65;;;;;;;3.50;59.37;100389.72;4416915;32;20105;-83
2022/12/21 02:40:52;;;;;;;33.55;14.95;;;;;;;3.58;59.37;100387.22;4404817;32;20127;-83
2022/12/21 02:46:16;;;;;;;35.42;14.68;;;;;;;3.56;59.37;100382.06;4437660;32;20100;-84
2022/12/21 02:48:49;;;;;;;33.75;14.13;;;;;;;3.55;59.38;100376.88;4390465;32;20097;-82
2022/12/21 02:51:18;;;;;;;37.50;15.30;;;;;;;3.49;59.37;100377.69;4416348;32;20675;-83
2022/12/21 02:53:44;;;;;;;30.02;13.82;;;;;;;3.47;59.37;100371.69;4401990;32;20137;-83
2022/12/21 02:56:16;;;;;;;35.83;15.57;;;;;;;3.52;59.37;100379.44;4403489;32;20794;-82
2022/12/21 02:58:42;;;;;;;38.78;15.50;;;;;;;3.50;59.37;100374.28;4402566;32;20094;-82
2022/12/21 03:01:12;;;;;;;36.42;14.63;;;;;;;3.29;59.35;100368.97;4406026;32;20441;-82
2022/12/21 03:03:49;;;;;;;33.65;15.52;;;;;;;3.43;59.36;100372.53;4433342;32;20437;-83
2022/12/21 03:06:21;;;;;;;35.00;14.32;;;;;;;3.56;59.37;100361.47;4424296;32;20094;-83
2022/12/21 03:08:59;;;;;;;33.13;13.82;;;;;;;3.48;59.37;100352.81;4424380;32;20105;-82
2022/12/21 03:11:41;;;;;;;36.95;15.15;;;;;;;3.48;59.37;100357.97;4411298;32;20121;-83
2022/12/21 03:14:14;;;;;;;31.15;13.93;;;;;;;3.57;59.37;100358.03;4404848;32;20090;-83
2022/12/21 03:16:48;;;;;;;27.23;13.00;;;;;;;3.70;59.38;100353.81;4402919;32;20085;-82
2022/12/21 03:19:35;;;;;;;37.95;14.13;;;;;;;3.77;59.39;100350.41;4403912;32;20144;-83
2022/12/21 03:22:25;;;;;;;35.13;14.87;;;;;;;3.61;59.38;100344.31;4400957;32;20102;-83
2022/12/21 03:25:03;;;;;;;38.50;14.30;;;;;;;3.77;59.39;100344.38;4393822;32;20086;-83
2022/12/21 03:27:41;;;;;;;36.35;15.35;;;;;;;3.56;59.37;100335.72;4397914;32;20105;-84
2022/12/21 03:30:09;;;;;;;34.63;13.73;;;;;;;3.58;59.37;100325.44;4404373;32;20126;-84
2022/12/21 03:32:59;;;;;;;35.20;14.40;;;;;;;3.55;59.38;100334.00;4402337;32;20106;-84
2022/12/21 03:35:44;;;;;;;33.85;13.75;;;;;;;3.62;59.38;100332.31;4400112;32;20163;-83
2022/12/21 03:38:19;;;;;;;32.05;14.07;;;;;;;3.67;59.38;100351.22;4388250;32;20122;-84
2022/12/21 03:40:46;;;;;;;38.97;14.05;;;;;;;3.63;59.38;100347.78;4411723;32;20120;-83
2022/12/21 03:43:17;;;;;;;30.73;13.43;;;;;;;3.62;59.38;100350.34;4400161;32;20117;-84
2022/12/21 03:45:46;;;;;;;34.40;13.88;;;;;;;3.70;59.38;100340.94;4400907;32;20116;-82
2022/12/21 03:48:24;;;;;;;34.47;13.93;;;;;;;3.66;59.38;100350.34;4397625;32;20090;-83
2022/12/21 03:50:50;;;;;;;33.45;13.98;;;;;;;3.62;59.38;100350.34;4414373;32;20109;-84
2022/12/21 03:54:08;;;;;;;31.60;13.35;;;;;;;3.70;59.38;100362.37;4413100;32;20180;-84
2022/12/21 03:56:35;;;;;;;33.25;14.35;;;;;;;3.52;59.37;100354.56;4355875;32;20353;-85
2022/12/21 03:59:01;;;;;;;28.50;12.70;;;;;;;3.64;59.38;100353.78;4389122;32;20113;-83
2022/12/21 04:01:36;;;;;;;33.25;14.20;;;;;;;3.53;59.38;100345.97;4410011;32;20155;-82
2022/12/21 04:04:04;;;;;;;30.70;13.57;;;;;;;3.52;59.37;100345.97;4407304;32;20106;-83
2022/12/21 04:06:31;;;;;;;32.85;12.32;;;;;;;3.35;59.37;100356.19;4405063;32;20711;-83
2022/12/21 04:08:56;;;;;;;31.52;13.32;;;;;;;3.47;59.38;100357.94;4415480;32;20128;-83
2022/12/21 04:14:06;;;;;;;31.60;12.73;;;;;;;3.61;59.38;100348.63;4418844;32;20511;-82
2022/12/21 04:16:31;;;;;;;35.95;13.95;;;;;;;3.58;59.38;100349.47;4400144;32;20133;-83
2022/12/21 04:21:40;;;;;;;30.20;13.15;;;;;;;3.68;59.37;100340.06;4401934;32;20129;-84
2022/12/21 04:28:07;;;;;;;28.02;12.57;;;;;;;3.63;59.38;100336.59;4405549;32;20108;-83
2022/12/21 04:29:55;;;;;;;30.90;13.35;;;;;;;3.84;59.39;100339.28;4413156;32;20162;-84
2022/12/21 04:32:20;;;;;;;32.88;13.52;;;;;;;3.76;59.39;100328.06;4410130;32;20154;-84
2022/12/21 04:34:46;;;;;;;34.33;13.00;;;;;;;3.62;59.38;100320.31;4415544;32;20152;-83
2022/12/21 04:39:55;;;;;;;27.45;11.88;;;;;;;3.57;59.37;100321.13;4408834;32;20100;-83
2022/12/21 04:42:21;;;;;;;30.65;12.95;;;;;;;3.65;59.38;100324.59;4408824;32;27037;-82
2022/12/21 04:44:46;;;;;;;32.90;12.18;;;;;;;3.82;59.38;100328.13;4411399;32;20123;-83
2022/12/21 04:47:11;;;;;;;25.27;11.48;;;;;;;3.87;59.39;100323.84;4414867;32;20148;-83
2022/12/21 04:49:37;;;;;;;28.62;12.20;;;;;;;3.75;59.38;100321.22;4416639;32;20097;-83
2022/12/21 04:52:02;;;;;;;28.15;11.43;;;;;;;3.66;59.38;100327.19;4396062;32;20249;-83
2022/12/21 04:54:28;;;;;;;26.87;11.38;;;;;;;3.65;59.38;100328.03;4397067;32;20355;-84
2022/12/21 04:56:53;;;;;;;28.33;11.68;;;;;;;3.62;59.38;100329.75;4408375;32;23710;-84
2022/12/21 04:59:18;;;;;;;27.92;10.95;;;;;;;3.54;59.38;100315.94;4409077;32;20335;-83
2022/12/21 05:01:44;;;;;;;29.17;11.85;;;;;;;3.68;59.37;100319.47;4418873;32;23728;-83
2022/12/21 05:04:10;;;;;;;27.98;11.52;;;;;;;3.71;59.38;100316.91;4403686;32;20585;-83
2022/12/21 05:06:35;;;;;;;29.27;11.25;;;;;;;3.80;59.38;100314.38;4397016;32;20504;-83
2022/12/21 05:09:01;;;;;;;26.40;11.25;;;;;;;3.70;59.39;100322.91;4410610;32;20101;-83
2022/12/21 05:11:26;;;;;;;29.87;10.95;;;;;;;3.76;59.38;100322.06;4395083;32;20209;-83
2022/12/21 05:13:52;;;;;;;29.33;12.13;;;;;;;3.69;59.39;100319.47;4409976;32;20141;-84
2022/12/21 05:16:19;;;;;;;28.05;10.82;;;;;;;3.78;59.39;100322.94;4400873;32;20128;-86
2022/12/21 05:18:45;;;;;;;29.20;11.30;;;;;;;3.77;59.39;100309.19;4407626;32;20098;-86
2022/12/21 05:21:11;;;;;;;30.42;10.95;;;;;;;3.63;59.38;100313.44;4398150;32;20136;-86
2022/12/21 05:23:36;;;;;;;27.87;10.65;;;;;;;3.64;59.38;100315.16;4410881;32;20227;-85
2022/12/21 05:26:03;;;;;;;27.42;11.23;;;;;;;3.80;59.38;100301.53;4411226;32;20157;-86
2022/12/21 05:28:28;;;;;;;25.05;11.43;;;;;;;3.65;59.38;100301.44;4398420;32;20139;-86
2022/12/21 05:30:54;;;;;;;31.98;11.65;;;;;;;3.76;59.39;100299.75;4407814;32;20113;-86
2022/12/21 05:33:19;;;;;;;30.37;11.05;;;;;;;3.72;59.39;100295.44;4411229;32;20105;-86
2022/12/21 05:35:45;;;;;;;27.52;11.68;;;;;;;3.81;59.38;100300.66;4420599;32;20094;-86
2022/12/21 05:38:10;;;;;;;28.05;12.48;;;;;;;3.73;59.38;100312.63;4404436;32;20141;-85
2022/12/21 05:40:36;;;;;;;31.37;11.93;;;;;;;3.57;59.37;100308.28;4402750;32;20094;-85
2022/12/21 05:43:02;;;;;;;30.58;12.68;;;;;;;3.43;59.36;100304.75;4404060;32;20110;-86
2022/12/21 05:45:27;;;;;;;32.83;13.27;;;;;;;3.53;59.38;100309.94;4401263;32;20500;-86
2022/12/21 05:47:54;;;;;;;29.58;12.93;;;;;;;3.68;59.39;100312.59;4405026;32;20097;-84
2022/12/21 05:50:19;;;;;;;29.63;12.93;;;;;;;3.65;59.38;100306.59;4382627;32;20114;-86
2022/12/21 05:52:44;;;;;;;27.23;10.63;;;;;;;3.63;59.38;100311.72;4404500;32;20136;-85
2022/12/21 05:55:10;;;;;;;31.65;13.00;;;;;;;3.68;59.39;100297.16;4381052;32;20093;-85
2022/12/21 05:57:36;;;;;;;29.60;12.23;;;;;;;3.63;59.38;100303.16;4406738;32;20149;-85
2022/12/21 06:00:01;;;;;;;31.90;13.20;;;;;;;3.55;59.38;100295.41;4410779;32;20098;-84
2022/12/21 06:02:27;;;;;;;31.10;13.25;;;;;;;3.59;59.38;100289.41;4407251;32;20144;-85
2022/12/21 06:04:53;;;;;;;30.02;12.63;;;;;;;3.48;59.37;100296.19;4407424;32;20148;-85
2022/12/21 06:07:18;;;;;;;32.03;12.68;;;;;;;3.49;59.37;100292.75;4398024;32;20089;-85
2022/12/21 06:09:43;;;;;;;32.28;13.10;;;;;;;3.44;59.37;100301.31;4410093;32;20155;-84
2022/12/21 06:12:09;;;;;;;34.85;13.45;;;;;;;3.44;59.36;100298.75;4409392;32;22479;-84
2022/12/21 06:14:35;;;;;;;29.95;12.50;;;;;;;3.30;59.36;100302.09;4409341;32;20361;-84
2022/12/21 06:17:00;;;;;;;30.77;13.77;;;;;;;3.33;59.37;100307.28;4407129;32;20149;-85
2022/12/21 06:19:28;;;;;;;36.90;14.93;;;;;;;3.53;59.38;100297.06;4420476;32;20129;-85
2022/12/21 06:21:53;;;;;;;35.67;14.75;;;;;;;3.49;59.37;100302.19;4397496;32;20434;-85
2022/12/21 06:24:18;;;;;;;32.65;14.50;;;;;;;3.50;59.37;100298.78;4397193;32;20188;-84
2022/12/21 06:26:44;;;;;;;34.50;14.68;;;;;;;3.44;59.36;100293.59;4409494;32;20081;-85
2022/12/21 06:29:09;;;;;;;34.90;13.60;;;;;;;3.50;59.37;100306.50;4412153;32;20094;-85
2022/12/21 06:31:35;;;;;;;33.95;13.50;;;;;;;3.48;59.37;100313.34;4409524;32;20102;-85
2022/12/21 06:34:00;;;;;;;33.58;12.90;;;;;;;3.54;59.38;100311.66;4397066;32;20086;-85
2022/12/21 06:36:26;;;;;;;31.25;12.00;;;;;;;3.49;59.37;100304.78;4406880;32;20101;-85
2022/12/21 06:38:51;;;;;;;29.60;12.52;;;;;;;3.58;59.37;100310.00;4422655;32;20526;-85
2022/12/21 06:41:17;;;;;;;31.27;12.70;;;;;;;3.42;59.37;100285.00;4411709;32;20093;-84
2022/12/21 06:43:43;;;;;;;34.28;13.85;;;;;;;3.48;59.37;100292.75;4389103;32;20185;-85
2022/12/21 06:46:10;;;;;;;32.58;13.35;;;;;;;3.56;59.38;100293.69;4414269;32;20111;-86
2022/12/21 06:48:35;;;;;;;31.60;13.52;;;;;;;3.48;59.38;100287.63;4401537;32;20106;-85
2022/12/21 06:51:03;;;;;;;36.97;14.82;;;;;;;3.52;59.37;100287.63;4396394;32;20156;-84
2022/12/21 06:53:30;;;;;;;35.65;15.70;;;;;;;3.50;59.37;100280.75;4397046;32;20139;-85
2022/12/21 06:56:03;;;;;;;34.85;14.93;;;;;;;3.46;59.36;100286.75;4403158;32;20085;-86
2022/12/21 06:58:28;;;;;;;37.42;15.52;;;;;;;3.51;59.37;100290.19;4414960;32;20185;-83
2022/12/21 07:00:54;;;;;;;47.85;17.15;;;;;;;3.42;59.37;100285.00;4408880;32;20393;-84
2022/12/21 07:03:20;;;;;;;46.53;16.33;;;;;;;3.44;59.36;100281.59;4396459;32;20113;-84
2022/12/21 07:05:45;;;;;;;42.30;16.15;;;;;;;3.51;59.37;100290.19;4405362;32;20104;-85
2022/12/21 07:08:21;;;;;;;38.85;15.93;;;;;;;3.55;59.38;100284.22;4411530;32;20165;-88
2022/12/21 07:10:47;;;;;;;36.50;14.98;;;;;;;3.77;59.39;100283.44;4410531;32;20122;-84
2022/12/21 07:13:13;;;;;;;39.08;16.45;;;;;;;3.69;59.38;100285.16;4398303;32;20082;-87
2022/12/21 07:15:38;;;;;;;42.75;14.50;;;;;;;3.76;59.39;100279.16;4415892;32;20089;-87
2022/12/21 07:18:04;;;;;;;36.83;15.15;;;;;;;3.86;59.39;100278.34;4412117;32;20394;-88
2022/12/21 07:20:29;;;;;;;37.75;15.02;;;;;;;3.79;59.39;100283.50;4399731;32;20189;-88
2022/12/21 07:22:55;;;;;;;41.63;16.33;;;;;;;3.86;59.40;100295.53;4409817;32;20089;-87
2022/12/21 07:25:20;;;;;;;32.58;14.77;;;;;;;3.83;59.40;100277.50;4399505;32;20422;-86
2022/12/21 07:27:46;;;;;;;41.42;16.00;;;;;;;3.81;59.39;100281.78;4398880;32;20174;-88
2022/12/21 07:30:11;;;;;;;39.05;16.20;;;;;;;3.93;59.39;100287.81;4412446;32;20078;-87
2022/12/21 07:32:37;;;;;;;35.40;15.02;;;;;;;3.95;59.39;100280.09;4412254;32;20108;-87
2022/12/21 07:35:02;;;;;;;36.67;14.77;;;;;;;3.98;59.41;100280.97;4418616;32;20111;-87
2022/12/21 07:37:28;;;;;;;37.08;15.35;;;;;;;3.68;59.38;100281.72;4403090;32;20180;-87
2022/12/21 07:39:53;;;;;;;37.40;15.38;;;;;;;3.83;59.38;100280.06;4398948;32;20156;-87
2022/12/21 07:42:19;;;;;;;33.13;13.73;;;;;;;3.86;59.40;100273.22;4408990;32;20135;-85
2022/12/21 07:44:44;;;;;;;30.50;14.30;;;;;;;3.84;59.39;100274.06;4398555;32;20089;-86
2022/12/21 07:47:10;;;;;;;33.30;14.20;;;;;;;3.73;59.38;100266.28;4398756;32;20559;-86
2022/12/21 07:49:35;;;;;;;31.85;14.95;;;;;;;3.80;59.39;100267.19;4398738;32;20394;-85
2022/12/21 07:52:01;;;;;;;35.40;15.10;;;;;;;3.67;59.38;100276.56;4411733;32;20089;-86
2022/12/21 07:54:26;;;;;;;35.47;13.48;;;;;;;3.58;59.37;100266.22;4397821;32;20089;-84
2022/12/21 07:56:51;;;;;;;34.28;14.27;;;;;;;3.72;59.38;100274.00;4411538;32;20117;-86
2022/12/21 07:59:17;;;;;;;35.08;13.85;;;;;;;3.70;59.39;100268.84;4413261;32;20098;-85
2022/12/21 08:01:42;;;;;;;31.83;13.25;;;;;;;3.77;59.39;100268.00;4412728;32;20088;-85
2022/12/21 08:04:08;;;;;;;34.03;14.13;;;;;;;3.77;59.39;100267.13;4395035;32;20144;-85
2022/12/21 08:06:34;;;;;;;29.92;12.82;;;;;;;3.85;59.39;100279.22;4417644;32;20102;-82
2022/12/21 08:09:00;;;;;;;40.00;14.70;;;;;;;3.89;59.39;100272.34;4427230;32;20546;-83
2022/12/21 08:11:25;;;;;;;36.30;14.10;;;;;;;3.96;59.40;100279.22;4425591;32;20081;-81
2022/12/21 08:13:51;;;;;;;31.50;13.85;;;;;;;4.00;59.40;100276.66;4396382;32;20133;-82
2022/12/21 08:16:18;;;;;;;39.10;13.15;;;;;;;4.13;59.41;100277.56;4406972;32;20175;-83
2022/12/21 08:18:44;;;;;;;36.53;14.18;;;;;;;4.23;59.42;100268.13;4396180;32;20118;-85
2022/12/21 08:21:09;;;;;;;39.47;14.65;;;;;;;4.23;59.41;100268.13;4396429;32;20121;-84
2022/12/21 08:23:35;;;;;;;32.92;13.45;;;;;;;4.32;59.42;100257.87;4406241;32;20159;-82
2022/12/21 08:26:01;;;;;;;31.27;13.95;;;;;;;4.35;59.41;100257.00;4399971;32;20117;-83
2022/12/21 08:28:27;;;;;;;28.80;13.73;;;;;;;4.21;59.41;100269.84;4409715;32;20147;-86
2022/12/21 08:30:59;;;;;;;34.92;14.80;;;;;;;4.12;59.40;100265.56;4406714;32;20725;-84
2022/12/21 08:33:24;;;;;;;38.10;15.68;;;;;;;4.37;59.42;100263.87;4404763;32;20176;-86
2022/12/21 08:35:49;;;;;;;80.78;28.65;;;;;;;4.18;59.41;100257.81;4403364;32;20121;-84
2022/12/21 08:38:15;;;;;;;38.03;16.33;;;;;;;4.15;59.41;100268.13;4406832;32;20106;-87
2022/12/21 08:40:40;;;;;;;35.00;15.55;;;;;;;4.30;59.42;100264.72;4389764;32;20154;-85
2022/12/21 08:43:06;;;;;;;36.03;16.30;;;;;;;4.24;59.42;100269.84;4413565;32;20157;-86
2022/12/21 08:45:31;;;;;;;38.08;15.80;;;;;;;4.31;59.42;100266.44;4401583;32;20137;-84
2022/12/21 08:47:57;;;;;;;40.22;16.08;;;;;;;4.28;59.42;100257.00;4408889;32;20132;-85
2022/12/21 08:50:22;;;;;;;38.10;16.05;;;;;;;4.28;59.42;100266.44;4408526;32;20441;-85
2022/12/21 08:52:48;;;;;;;34.88;15.45;;;;;;;4.25;59.41;100261.25;4394624;32;20141;-85
2022/12/21 08:55:14;;;;;;;37.97;16.45;;;;;;;4.21;59.41;100256.97;4404820;32;20117;-86
2022/12/21 08:57:39;;;;;;;43.92;16.73;;;;;;;4.31;59.42;100257.00;4406497;32;20089;-83
2022/12/21 09:00:09;;;;;;;33.75;14.25;;;;;;;4.29;59.42;100261.31;4400962;32;20738;-85
2022/12/21 09:02:35;;;;;;;42.62;16.60;;;;;;;4.32;59.41;100257.87;4405722;32;20125;-83
2022/12/21 09:05:00;;;;;;;37.97;15.82;;;;;;;4.33;59.41;100259.59;4419143;32;20465;-83
2022/12/21 09:07:26;;;;;;;35.85;15.60;;;;;;;4.28;59.42;100267.31;4403861;32;20139;-86
2022/12/21 09:09:51;;;;;;;40.25;15.95;;;;;;;4.30;59.42;100264.72;4413976;32;20084;-87
2022/12/21 09:12:17;;;;;;;33.38;14.30;;;;;;;4.29;59.42;100258.72;4414176;32;20112;-86
2022/12/21 09:14:42;;;;;;;33.47;15.40;;;;;;;4.30;59.42;100260.44;4402970;32;20105;-86
2022/12/21 09:17:07;;;;;;;39.22;15.95;;;;;;;4.42;59.42;100251.00;4398225;32;20102;-85
2022/12/21 09:19:33;;;;;;;35.45;15.60;;;;;;;4.52;59.43;100256.16;4388020;32;20093;-86
2022/12/21 09:21:59;;;;;;;37.55;16.58;;;;;;;4.38;59.43;100254.44;4397388;32;20137;-86
2022/12/21 09:24:24;;;;;;;37.25;16.05;;;;;;;4.59;59.43;100242.41;4398209;32;20132;-85
2022/12/21 09:26:49;;;;;;;35.55;16.30;;;;;;;4.56;59.43;100234.69;4406845;32;20130;-85
2022/12/21 09:29:15;;;;;;;38.05;16.35;;;;;;;4.62;59.43;100231.25;4387214;32;20145;-84
2022/12/21 09:31:40;;;;;;;37.58;16.02;;;;;;;4.65;59.44;100226.06;4415514;32;20085;-84
2022/12/21 09:34:06;;;;;;;42.50;18.17;;;;;;;4.58;59.43;100216.63;4426350;32;20121;-85
2022/12/21 09:36:32;;;;;;;36.03;15.77;;;;;;;4.62;59.44;100224.38;4402990;32;20113;-87
2022/12/21 09:38:57;;;;;;;40.20;16.65;;;;;;;4.71;59.44;100212.31;4401770;32;20909;-86
2022/12/21 09:41:29;;;;;;;35.53;16.52;;;;;;;4.58;59.44;100217.50;4403787;32;20086;-86
2022/12/21 09:44:06;;;;;;;40.67;17.00;;;;;;;4.57;59.44;100215.78;4405699;32;20120;-85
2022/12/21 09:46:34;;;;;;;40.17;18.27;;;;;;;4.59;59.43;100216.63;4417919;32;20108;-88
2022/12/21 09:49:03;;;;;;;40.12;18.17;;;;;;;4.72;59.43;100206.28;4412408;32;20440;-85
2022/12/21 09:51:30;;;;;;;45.15;17.02;;;;;;;4.82;59.45;100203.72;4404135;32;20129;-84
2022/12/21 09:54:00;;;;;;;38.25;16.40;;;;;;;4.74;59.44;100205.47;4394482;32;20441;-84
2022/12/21 09:56:26;;;;;;;38.72;15.85;;;;;;;4.89;59.44;100199.41;4403942;32;20117;-86
2022/12/21 09:58:53;;;;;;;38.28;17.75;;;;;;;4.89;59.45;100202.84;4403815;32;20513;-83
2022/12/21 10:01:33;;;;;;;40.45;17.60;;;;;;;4.87;59.45;100203.72;4416283;32;20933;-88
2022/12/21 10:04:04;;;;;;;44.05;18.08;;;;;;;4.92;59.45;100199.38;4421874;32;20158;-83
2022/12/21 10:06:33;;;;;;;42.50;18.45;;;;;;;4.92;59.45;100199.38;4422232;32;20098;-82
2022/12/21 10:09:07;;;;;;;43.28;17.87;;;;;;;4.91;59.45;100197.69;4409361;32;20089;-83
2022/12/21 10:11:54;;;;;;;35.15;16.27;;;;;;;4.98;59.46;100199.41;4422427;32;20090;-82
2022/12/21 10:14:52;;;;;;;41.83;17.55;;;;;;;5.04;59.46;100189.06;4422331;32;20159;-83
2022/12/21 10:17:23;;;;;;;42.25;17.52;;;;;;;5.11;59.47;100189.91;4414641;32;20106;-85
2022/12/21 10:19:55;;;;;;;43.33;18.30;;;;;;;5.08;59.46;100198.50;4408932;32;20153;-84
2022/12/21 10:22:28;;;;;;;44.08;17.40;;;;;;;5.09;59.46;100191.62;4416274;32;20093;-87
2022/12/21 10:24:58;;;;;;;39.80;17.67;;;;;;;5.08;59.46;100198.50;4402062;32;20796;-87
2022/12/21 10:27:29;;;;;;;45.40;17.00;;;;;;;4.98;59.45;100195.97;4413009;32;20117;-83
2022/12/21 10:29:56;;;;;;;39.38;17.17;;;;;;;5.02;59.46;100187.34;4409241;32;20161;-85
2022/12/21 10:32:22;;;;;;;42.95;19.48;;;;;;;5.10;59.46;100176.13;4405980;32;20117;-85
2022/12/21 10:34:48;;;;;;;48.15;19.90;;;;;;;5.15;59.46;100168.38;4412675;32;20807;-86
2022/12/21 10:37:18;;;;;;;43.90;18.87;;;;;;;4.94;59.46;100174.44;4413556;32;20131;-89
2022/12/21 10:39:44;;;;;;;;;;;;;;;4.96;59.45;100180.47;4398081;32;20162;-85
2022/12/21 10:42:31;;;;;;;43.40;19.33;;;;;;;5.10;59.46;100170.13;4406673;32;20050;-82
2022/12/21 10:44:56;;;;;;;36.50;16.45;;;;;;;5.06;59.46;100166.69;4424698;32;20450;-85
2022/12/21 10:47:23;;;;;;;38.58;17.25;;;;;;;5.27;59.47;100157.16;4407962;32;20131;-84
2022/12/21 10:49:54;;;;;;;43.25;18.35;;;;;;;5.08;59.45;100157.22;4417855;32;20097;-85
2022/12/21 10:52:42;;;;;;;43.55;19.77;;;;;;;4.97;59.45;100155.53;4426076;32;20218;-87
2022/12/21 10:55:17;;;;;;;36.65;16.50;;;;;;;4.99;59.46;100146.09;4403709;32;20120;-86
2022/12/21 10:57:46;;;;;;;37.97;18.05;;;;;;;4.90;59.45;100147.81;4431917;32;20117;-83
2022/12/21 11:00:21;;;;;;;43.72;17.30;;;;;;;4.80;59.45;100146.13;4402606;32;20147;-85
2022/12/21 11:02:47;;;;;;;40.35;17.40;;;;;;;4.90;59.45;100136.63;4425418;32;20130;-85
2022/12/21 11:05:29;;;;;;;41.10;17.73;;;;;;;4.93;59.45;100131.47;4398912;32;20137;-85
2022/12/21 11:08:18;;;;;;;40.78;17.75;;;;;;;5.08;59.46;100138.31;4407073;32;20179;-85
2022/12/21 11:10:48;;;;;;;41.60;17.37;;;;;;;5.09;59.46;100135.72;4410589;32;20104;-86
2022/12/21 11:13:13;;;;;;;;;;;;;;;5.00;59.45;100124.59;4415762;32;20209;-86
2022/12/21 11:15:49;;;;;;;48.63;18.23;;;;;;;5.15;59.46;100117.63;4413753;32;20015;-85
2022/12/21 11:18:34;;;;;;;44.58;19.08;;;;;;;5.22;59.47;100121.91;4397146;32;20104;-85
2022/12/21 11:21:01;;;;;;;36.78;16.92;;;;;;;5.34;59.47;100117.53;4420685;32;20077;-84
2022/12/21 11:23:26;;;;;;;44.70;18.05;;;;;;;5.31;59.48;100115.84;4417465;32;20118;-84
2022/12/21 11:25:53;;;;;;;39.47;18.25;;;;;;;5.33;59.48;100121.00;4392280;32;20110;-86
2022/12/21 11:28:19;;;;;;;40.50;17.52;;;;;;;5.36;59.47;100119.25;4402283;32;20102;-88
2022/12/21 11:30:50;;;;;;;47.03;18.87;;;;;;;5.51;59.48;100121.75;4411282;32;20089;-86
2022/12/21 11:33:16;;;;;;;45.45;18.17;;;;;;;5.34;59.48;100115.81;4408823;32;20077;-86
2022/12/21 11:36:04;;;;;;;40.67;19.10;;;;;;;5.44;59.48;100116.62;4408324;32;20152;-87
2022/12/21 11:38:33;;;;;;;38.30;16.62;;;;;;;5.55;59.49;100113.12;4399397;32;20074;-86